createdAt,value
2023-02-06T00:00:18.524Z,3.20
2023-02-06T00:03:05.953Z,3.20
2023-02-06T00:05:58.163Z,3.20
2023-02-06T00:08:45.253Z,3.20
2023-02-06T00:11:32.160Z,3.20
2023-02-06T00:14:19.030Z,3.20
2023-02-06T00:17:05.981Z,3.20
2023-02-06T00:19:52.844Z,3.20
2023-02-06T00:22:40.303Z,3.20
2023-02-06T00:25:27.129Z,3.10
2023-02-06T00:28:14.286Z,3.50
2023-02-06T00:31:01.308Z,3.10
2023-02-06T00:33:48.414Z,3.20
2023-02-06T00:36:35.237Z,3.20
2023-02-06T00:39:22.076Z,3.10
2023-02-06T00:42:09.032Z,3.10
2023-02-06T00:44:55.851Z,3.10
2023-02-06T00:47:42.695Z,3.10
2023-02-06T00:50:29.675Z,3.10
2023-02-06T00:53:16.710Z,3.10
2023-02-06T00:56:03.867Z,3.10
2023-02-06T00:58:50.675Z,3.10
2023-02-06T01:01:37.562Z,3.10
2023-02-06T01:04:24.629Z,3.10
2023-02-06T01:07:11.695Z,3.10
2023-02-06T01:09:58.604Z,3.10
2023-02-06T01:12:45.689Z,3.00
2023-02-06T01:15:32.608Z,3.00
2023-02-06T01:18:19.533Z,3.00
2023-02-06T01:21:15.236Z,3.00
2023-02-06T01:24:02.200Z,3.00
2023-02-06T01:26:49.013Z,3.00
2023-02-06T01:29:35.977Z,3.00
2023-02-06T01:32:22.801Z,3.00
2023-02-06T01:35:11.775Z,3.00
2023-02-06T01:37:59.012Z,3.00
2023-02-06T01:40:45.878Z,3.00
2023-02-06T01:43:37.854Z,3.00
2023-02-06T01:46:25.025Z,3.00
2023-02-06T01:49:29.759Z,2.90
2023-02-06T01:52:30.556Z,2.90
2023-02-06T01:55:17.836Z,2.90
2023-02-06T01:58:05.662Z,2.90
2023-02-06T02:00:52.413Z,2.90
2023-02-06T02:03:42.928Z,2.90
2023-02-06T02:06:29.804Z,2.90
2023-02-06T02:09:18.642Z,2.90
2023-02-06T02:12:06.292Z,2.90
2023-02-06T02:14:54.573Z,2.90
2023-02-06T02:18:09.103Z,2.90
2023-02-06T02:21:37.472Z,2.90
2023-02-06T02:25:20.074Z,2.90
2023-02-06T02:28:48.184Z,2.90
2023-02-06T02:31:38.807Z,2.90
2023-02-06T02:35:07.093Z,2.80
2023-02-06T02:38:12.430Z,2.80
2023-02-06T02:41:26.858Z,2.80
2023-02-06T02:44:31.316Z,2.80
2023-02-06T02:47:21.196Z,2.90
2023-02-06T02:50:08.400Z,2.90
2023-02-06T02:52:55.793Z,2.80
2023-02-06T02:55:42.722Z,2.80
2023-02-06T02:58:34.158Z,2.80
2023-02-06T03:01:26.426Z,2.80
2023-02-06T03:04:19.461Z,2.80
2023-02-06T03:07:15.085Z,2.80
2023-02-06T03:10:20.792Z,2.70
2023-02-06T03:13:18.072Z,2.80
2023-02-06T03:16:17.340Z,2.80
2023-02-06T03:19:44.125Z,2.70
2023-02-06T03:22:32.932Z,2.70
2023-02-06T03:25:28.121Z,2.70
2023-02-06T03:28:21.246Z,2.70
2023-02-06T03:31:11.946Z,2.70
2023-02-06T03:34:07.017Z,2.70
2023-02-06T03:36:53.953Z,2.70
2023-02-06T03:39:40.946Z,2.70
2023-02-06T03:42:29.742Z,2.70
2023-02-06T03:45:28.609Z,2.70
2023-02-06T03:48:21.802Z,2.70
2023-02-06T03:51:13.419Z,2.70
2023-02-06T03:54:02.932Z,2.70
2023-02-06T03:57:02.910Z,2.70
2023-02-06T03:59:50.142Z,2.70
2023-02-06T04:02:37.868Z,2.70
2023-02-06T04:05:24.869Z,2.70
2023-02-06T04:08:11.681Z,2.70
2023-02-06T04:10:58.583Z,2.70
2023-02-06T04:13:45.496Z,2.60
2023-02-06T04:16:32.355Z,2.60
2023-02-06T04:19:19.174Z,2.70
2023-02-06T04:22:07.308Z,2.70
2023-02-06T04:24:54.244Z,2.70
2023-02-06T04:27:41.194Z,2.70
2023-02-06T04:30:28.312Z,2.70
2023-02-06T04:33:15.205Z,2.60
2023-02-06T04:36:02.094Z,2.60
2023-02-06T04:38:48.945Z,2.60
2023-02-06T04:41:35.778Z,2.70
2023-02-06T04:44:23.115Z,2.70
2023-02-06T04:47:10.008Z,2.60
2023-02-06T04:49:56.797Z,2.60
2023-02-06T04:52:43.658Z,2.70
2023-02-06T04:55:30.512Z,2.70
2023-02-06T04:58:17.349Z,2.60
2023-02-06T05:01:04.322Z,2.60
2023-02-06T05:03:51.330Z,2.60
2023-02-06T05:06:38.228Z,2.60
2023-02-06T05:09:25.072Z,2.60
2023-02-06T05:12:14.206Z,2.70
2023-02-06T05:15:01.236Z,2.70
2023-02-06T05:17:48.123Z,2.70
2023-02-06T05:20:35.005Z,2.60
2023-02-06T05:23:21.910Z,2.70
2023-02-06T05:26:08.980Z,2.70
2023-02-06T05:28:55.826Z,2.60
2023-02-06T05:31:42.900Z,2.60
2023-02-06T05:34:29.764Z,2.60
2023-02-06T05:37:16.689Z,2.70
2023-02-06T05:40:07.190Z,2.70
2023-02-06T05:42:54.058Z,2.60
2023-02-06T05:45:41.119Z,2.60
2023-02-06T05:48:30.600Z,2.60
2023-02-06T05:51:17.580Z,2.60
2023-02-06T05:54:04.802Z,2.60
2023-02-06T05:56:51.836Z,2.60
2023-02-06T05:59:38.848Z,2.60
2023-02-06T06:02:25.712Z,2.60
2023-02-06T06:05:12.588Z,2.70
2023-02-06T06:07:59.391Z,2.60
2023-02-06T06:10:46.272Z,2.60
2023-02-06T06:13:33.120Z,2.60
2023-02-06T06:16:19.917Z,2.60
2023-02-06T06:19:07.016Z,2.70
2023-02-06T06:21:53.870Z,2.70
2023-02-06T06:24:40.785Z,2.70
2023-02-06T06:27:27.702Z,2.70
2023-02-06T06:30:14.903Z,2.70
2023-02-06T06:33:01.829Z,2.70
2023-02-06T06:35:48.661Z,2.70
2023-02-06T06:38:35.610Z,2.70
2023-02-06T06:41:22.439Z,2.70
2023-02-06T06:44:09.234Z,2.60
2023-02-06T06:46:56.105Z,2.70
2023-02-06T06:49:42.952Z,2.70
2023-02-06T06:52:29.720Z,2.70
2023-02-06T06:55:16.900Z,2.70
2023-02-06T06:58:03.730Z,2.60
2023-02-06T07:00:53.854Z,2.70
2023-02-06T07:03:44.246Z,2.60
2023-02-06T07:06:31.134Z,2.60
2023-02-06T07:09:18.076Z,2.70
2023-02-06T07:12:05.483Z,2.70
2023-02-06T07:14:52.399Z,2.70
2023-02-06T07:17:39.428Z,2.70
2023-02-06T07:20:26.349Z,2.70
2023-02-06T07:23:13.226Z,2.70
2023-02-06T07:26:02.344Z,2.70
2023-02-06T07:28:49.911Z,2.70
2023-02-06T07:31:36.753Z,2.70
2023-02-06T07:34:23.749Z,2.70
2023-02-06T07:37:10.664Z,2.70
2023-02-06T07:39:57.471Z,2.70
2023-02-06T07:42:44.282Z,2.80
2023-02-06T07:45:31.227Z,2.80
2023-02-06T07:48:18.039Z,2.80
2023-02-06T07:51:09.209Z,2.80
2023-02-06T07:53:55.989Z,2.90
2023-02-06T07:56:43.287Z,2.90
2023-02-06T07:59:30.219Z,2.90
2023-02-06T08:02:17.196Z,2.90
2023-02-06T08:05:04.033Z,2.90
2023-02-06T08:07:52.147Z,3.00
2023-02-06T08:10:40.020Z,3.00
2023-02-06T08:13:26.856Z,3.00
2023-02-06T08:16:16.376Z,3.10
2023-02-06T08:19:03.262Z,3.30
2023-02-06T08:21:50.809Z,3.50
2023-02-06T08:24:37.651Z,3.60
2023-02-06T08:27:24.467Z,3.70
2023-02-06T08:30:12.255Z,3.70
2023-02-06T08:32:58.982Z,3.60
2023-02-06T08:35:45.860Z,3.60
2023-02-06T08:38:32.955Z,3.50
2023-02-06T08:41:26.398Z,3.50
2023-02-06T08:44:16.334Z,3.60
2023-02-06T08:47:10.116Z,3.60
2023-02-06T08:49:57.394Z,3.60
2023-02-06T08:52:44.271Z,3.70
2023-02-06T08:55:31.186Z,3.90
2023-02-06T08:58:18.060Z,3.90
2023-02-06T09:01:09.768Z,4.00
2023-02-06T09:04:01.716Z,3.90
2023-02-06T09:06:52.241Z,3.90
2023-02-06T09:09:39.392Z,3.80
2023-02-06T09:12:26.213Z,3.90
2023-02-06T09:15:13.046Z,4.00
2023-02-06T09:17:59.921Z,4.20
2023-02-06T09:20:49.753Z,4.50
2023-02-06T09:23:37.035Z,4.80
2023-02-06T09:26:25.921Z,4.90
2023-02-06T09:29:13.496Z,5.00
2023-02-06T09:32:00.964Z,5.00
2023-02-06T09:34:49.103Z,5.00
2023-02-06T09:37:36.676Z,5.00
2023-02-06T09:40:28.046Z,5.10
2023-02-06T09:43:15.081Z,5.00
2023-02-06T09:46:05.968Z,4.70
2023-02-06T09:48:54.091Z,4.60
2023-02-06T09:51:53.329Z,4.50
2023-02-06T09:54:52.267Z,4.60
2023-02-06T09:58:30.012Z,4.80
2023-02-06T10:01:23.087Z,5.20
2023-02-06T10:04:25.333Z,5.50
2023-02-06T10:07:43.078Z,5.60
2023-02-06T10:10:38.875Z,5.40
2023-02-06T10:13:52.764Z,5.60
2023-02-06T10:16:51.614Z,5.90
2023-02-06T10:19:56.426Z,6.00
2023-02-06T10:22:47.605Z,5.80
2023-02-06T10:25:39.016Z,5.50
2023-02-06T10:28:29.316Z,5.20
2023-02-06T10:31:19.398Z,5.00
2023-02-06T10:34:17.556Z,4.70
2023-02-06T10:37:25.638Z,4.60
2023-02-06T10:40:34.400Z,4.50
2023-02-06T10:43:40.618Z,4.40
2023-02-06T10:46:36.367Z,4.40
2023-02-06T10:49:37.879Z,4.50
2023-02-06T10:52:30.923Z,4.50
2023-02-06T10:55:25.001Z,4.40
2023-02-06T10:58:23.912Z,4.40
2023-02-06T11:01:25.749Z,4.30
2023-02-06T11:04:40.626Z,4.20
2023-02-06T11:07:31.964Z,4.20
2023-02-06T11:10:21.570Z,4.30
2023-02-06T11:13:21.218Z,4.30
2023-02-06T11:16:14.239Z,4.40
2023-02-06T11:19:10.734Z,4.60
2023-02-06T11:22:15.911Z,4.70
2023-02-06T11:25:07.948Z,4.80
2023-02-06T11:27:55.775Z,4.80
2023-02-06T11:30:53.448Z,4.80
2023-02-06T11:33:50.560Z,4.70
2023-02-06T11:36:39.000Z,4.70
2023-02-06T11:39:35.329Z,4.70
2023-02-06T11:42:24.870Z,4.60
2023-02-06T11:45:31.248Z,4.50
2023-02-06T11:48:48.710Z,4.50
2023-02-06T11:51:48.919Z,4.50
2023-02-06T11:54:36.394Z,4.60
2023-02-06T11:57:26.845Z,4.60
2023-02-06T12:00:24.191Z,4.50
2023-02-06T12:03:33.141Z,4.40
2023-02-06T12:06:24.326Z,4.30
2023-02-06T12:09:13.324Z,4.40
2023-02-06T12:12:14.272Z,4.50
2023-02-06T12:15:36.231Z,4.60
2023-02-06T12:18:44.017Z,4.50
2023-02-06T12:21:50.660Z,4.40
2023-02-06T12:24:44.575Z,4.30
2023-02-06T12:27:39.455Z,4.30
2023-02-06T12:30:38.777Z,4.40
2023-02-06T12:33:42.300Z,4.40
2023-02-06T12:36:38.535Z,4.50
2023-02-06T12:39:26.685Z,4.50
2023-02-06T12:42:47.311Z,4.40
2023-02-06T12:45:58.354Z,4.30
2023-02-06T12:49:23.635Z,4.10
2023-02-06T12:52:16.158Z,4.00
2023-02-06T12:55:29.030Z,3.90
2023-02-06T12:58:43.715Z,3.80
2023-02-06T13:02:01.077Z,3.70
2023-02-06T13:04:48.528Z,3.70
2023-02-06T13:07:48.995Z,3.70
2023-02-06T13:10:37.600Z,3.70
2023-02-06T13:13:32.943Z,3.70
2023-02-06T13:16:19.906Z,3.70
2023-02-06T13:19:19.487Z,3.60
2023-02-06T13:22:09.461Z,3.60
2023-02-06T13:24:58.316Z,3.50
2023-02-06T13:27:45.370Z,3.50
2023-02-06T13:30:32.233Z,3.40
2023-02-06T13:33:27.087Z,3.40
2023-02-06T13:36:24.800Z,3.30
2023-02-06T13:39:32.855Z,3.30
2023-02-06T13:42:34.648Z,3.30
2023-02-06T13:45:41.668Z,3.30
2023-02-06T13:48:50.115Z,3.30
2023-02-06T13:52:16.342Z,3.20
2023-02-06T13:55:16.173Z,3.20
2023-02-06T13:58:20.633Z,3.10
2023-02-06T14:01:14.588Z,3.10
2023-02-06T14:04:01.698Z,3.10
2023-02-06T14:07:17.845Z,3.10
2023-02-06T14:11:07.874Z,3.00
2023-02-06T14:14:17.366Z,3.00
2023-02-06T14:17:28.677Z,2.90
2023-02-06T14:20:42.025Z,3.00
2023-02-06T14:23:58.007Z,3.00
2023-02-06T14:26:50.800Z,3.00
2023-02-06T14:29:54.505Z,2.90
2023-02-06T14:32:54.045Z,2.90
2023-02-06T14:36:02.812Z,2.80
2023-02-06T14:39:26.514Z,2.80
2023-02-06T14:42:39.313Z,2.80
2023-02-06T14:45:41.722Z,2.70
2023-02-06T14:48:44.439Z,2.70
2023-02-06T14:51:39.741Z,2.70
2023-02-06T14:54:38.245Z,2.70
2023-02-06T14:57:26.749Z,2.70
2023-02-06T15:00:19.232Z,2.70
2023-02-06T15:03:19.207Z,2.60
2023-02-06T15:06:10.322Z,2.60
2023-02-06T15:08:57.334Z,2.50
2023-02-06T15:11:51.674Z,2.50
2023-02-06T15:14:38.730Z,2.40
2023-02-06T15:17:26.924Z,2.40
2023-02-06T15:20:25.826Z,2.40
2023-02-06T15:23:18.400Z,2.40
2023-02-06T15:26:17.866Z,2.40
2023-02-06T15:29:14.317Z,2.40
2023-02-06T15:32:07.893Z,2.30
2023-02-06T15:34:54.887Z,2.30
2023-02-06T15:37:41.724Z,2.30
2023-02-06T15:40:39.049Z,2.20
2023-02-06T15:43:27.118Z,2.20
2023-02-06T15:46:15.015Z,2.20
2023-02-06T15:49:02.007Z,2.20
2023-02-06T15:51:54.980Z,2.20
2023-02-06T15:54:45.029Z,2.10
2023-02-06T15:57:35.670Z,2.10
2023-02-06T16:00:32.806Z,2.10
2023-02-06T16:03:23.111Z,2.10
2023-02-06T16:06:17.538Z,2.10
2023-02-06T16:09:07.346Z,2.10
2023-02-06T16:11:57.018Z,2.00
2023-02-06T16:15:01.159Z,2.00
2023-02-06T16:17:48.081Z,2.00
2023-02-06T16:20:42.447Z,2.00
2023-02-06T16:23:43.242Z,2.00
2023-02-06T16:26:43.117Z,1.90
2023-02-06T16:29:32.709Z,1.90
2023-02-06T16:32:31.458Z,1.90
2023-02-06T16:35:18.392Z,1.80
2023-02-06T16:38:06.586Z,1.80
2023-02-06T16:40:53.519Z,1.80
2023-02-06T16:43:41.639Z,1.90
2023-02-06T16:46:29.213Z,1.90
2023-02-06T16:49:19.480Z,1.90
2023-02-06T16:52:06.816Z,1.90
2023-02-06T16:54:55.992Z,1.90
2023-02-06T16:57:45.108Z,1.90
2023-02-06T17:00:32.614Z,1.80
2023-02-06T17:03:19.557Z,1.90
2023-02-06T17:06:07.321Z,1.90
2023-02-06T17:08:55.328Z,1.90
2023-02-06T17:11:42.209Z,1.90
2023-02-06T17:14:29.122Z,1.90
2023-02-06T17:17:19.354Z,1.90
2023-02-06T17:20:17.445Z,1.80
2023-02-06T17:23:05.180Z,1.90
2023-02-06T17:25:52.276Z,1.90
2023-02-06T17:28:39.368Z,1.80
2023-02-06T17:31:26.653Z,1.80
2023-02-06T17:34:13.573Z,1.70
2023-02-06T17:37:00.686Z,1.80
2023-02-06T17:39:51.959Z,1.70
2023-02-06T17:42:38.775Z,1.70
2023-02-06T17:45:26.449Z,1.70
2023-02-06T17:48:13.761Z,1.60
2023-02-06T17:51:00.618Z,1.60
2023-02-06T17:53:47.548Z,1.60
2023-02-06T17:56:35.338Z,1.60
2023-02-06T17:59:22.058Z,1.60
2023-02-06T18:02:14.628Z,1.60
2023-02-06T18:05:01.578Z,1.50
2023-02-06T18:07:50.685Z,1.50
2023-02-06T18:10:39.536Z,1.50
2023-02-06T18:13:28.307Z,1.50
2023-02-06T18:16:21.424Z,1.50
2023-02-06T18:19:08.597Z,1.50
2023-02-06T18:21:55.458Z,1.50
2023-02-06T18:24:42.437Z,1.50
2023-02-06T18:27:29.803Z,1.50
2023-02-06T18:30:17.323Z,1.60
2023-02-06T18:33:04.235Z,1.50
2023-02-06T18:35:51.431Z,1.50
2023-02-06T18:38:38.431Z,1.50
2023-02-06T18:41:43.890Z,1.50
2023-02-06T18:44:31.306Z,1.40
2023-02-06T18:47:18.987Z,1.40
2023-02-06T18:50:06.271Z,1.40
2023-02-06T18:52:53.451Z,1.40
2023-02-06T18:55:40.554Z,1.40
2023-02-06T18:58:27.448Z,1.40
2023-02-06T19:01:21.156Z,1.40
2023-02-06T19:04:07.939Z,1.40
2023-02-06T19:06:55.098Z,1.40
2023-02-06T19:09:42.396Z,1.30
2023-02-06T19:12:29.775Z,1.30
2023-02-06T19:15:16.655Z,1.30
2023-02-06T19:18:05.438Z,1.40
2023-02-06T19:20:52.253Z,1.40
2023-02-06T19:23:39.877Z,1.40
2023-02-06T19:26:27.812Z,1.40
2023-02-06T19:29:19.341Z,1.30
2023-02-06T19:32:10.810Z,1.30
2023-02-06T19:34:58.110Z,1.30
2023-02-06T19:37:45.002Z,1.30
2023-02-06T19:40:32.340Z,1.30
2023-02-06T19:43:19.657Z,1.20
2023-02-06T19:46:13.084Z,1.20
2023-02-06T19:49:00.333Z,1.20
2023-02-06T19:51:47.367Z,1.20
2023-02-06T19:54:34.174Z,1.20
2023-02-06T19:57:21.034Z,1.10
2023-02-06T20:00:08.606Z,1.10
2023-02-06T20:02:55.719Z,1.10
2023-02-06T20:05:43.724Z,1.20
2023-02-06T20:08:30.761Z,1.20
2023-02-06T20:11:20.379Z,1.20
2023-02-06T20:14:07.640Z,1.20
2023-02-06T20:16:54.582Z,1.10
2023-02-06T20:19:41.566Z,1.10
2023-02-06T20:22:28.919Z,1.00
2023-02-06T20:25:16.678Z,1.00
2023-02-06T20:28:04.284Z,1.00
2023-02-06T20:30:51.283Z,1.00
2023-02-06T20:33:38.716Z,1.10
2023-02-06T20:36:27.568Z,1.10
2023-02-06T20:39:15.111Z,1.10
2023-02-06T20:42:01.974Z,1.10
2023-02-06T20:44:50.317Z,1.20
2023-02-06T20:47:37.440Z,1.20
2023-02-06T20:50:24.330Z,1.20
2023-02-06T20:53:11.322Z,1.20
2023-02-06T20:55:59.319Z,1.10
2023-02-06T20:58:47.268Z,1.10
2023-02-06T21:01:34.872Z,1.10
2023-02-06T21:04:21.832Z,1.10
2023-02-06T21:07:08.714Z,1.10
2023-02-06T21:09:55.556Z,1.10
2023-02-06T21:12:42.379Z,1.10
2023-02-06T21:15:29.575Z,1.10
2023-02-06T21:18:16.746Z,1.20
2023-02-06T21:21:09.443Z,1.10
2023-02-06T21:23:56.373Z,1.00
2023-02-06T21:26:43.811Z,0.90
2023-02-06T21:29:31.841Z,0.90
2023-02-06T21:32:19.043Z,0.90
2023-02-06T21:35:09.250Z,0.90
2023-02-06T21:37:56.642Z,0.80
2023-02-06T21:40:44.749Z,0.90
2023-02-06T21:43:31.802Z,0.90
2023-02-06T21:46:18.699Z,0.90
2023-02-06T21:49:06.532Z,1.00
2023-02-06T21:51:53.592Z,1.00
2023-02-06T21:54:40.484Z,1.00
2023-02-06T21:57:27.336Z,1.10
2023-02-06T22:00:14.781Z,1.10
2023-02-06T22:03:02.011Z,1.10
2023-02-06T22:05:49.080Z,1.10
2023-02-06T22:08:36.937Z,1.10
2023-02-06T22:11:28.786Z,1.00
2023-02-06T22:14:17.868Z,1.00
2023-02-06T22:17:04.783Z,0.90
2023-02-06T22:19:53.578Z,0.90
2023-02-06T22:22:41.245Z,0.90
2023-02-06T22:25:28.584Z,0.90
2023-02-06T22:28:15.496Z,1.30
2023-02-06T22:31:11.417Z,0.80
2023-02-06T22:34:00.036Z,0.90
2023-02-06T22:36:47.580Z,0.90
2023-02-06T22:39:34.776Z,0.90
2023-02-06T22:42:22.063Z,1.30
2023-02-06T22:45:09.224Z,1.00
2023-02-06T22:47:56.029Z,1.00
2023-02-06T22:50:42.831Z,1.10
2023-02-06T22:53:31.553Z,1.10
2023-02-06T22:56:31.897Z,1.20
2023-02-06T22:59:21.757Z,1.20
2023-02-06T23:02:08.677Z,1.10
2023-02-06T23:04:55.712Z,1.10
2023-02-06T23:07:42.677Z,1.00
2023-02-06T23:10:29.506Z,0.90
2023-02-06T23:13:16.362Z,0.80
2023-02-06T23:16:03.749Z,0.70
2023-02-06T23:18:50.956Z,0.70
2023-02-06T23:21:39.678Z,0.60
2023-02-06T23:24:26.688Z,0.50
2023-02-06T23:27:13.540Z,0.50
2023-02-06T23:30:00.462Z,0.40
2023-02-06T23:32:47.527Z,0.40
2023-02-06T23:35:39.852Z,0.30
2023-02-06T23:38:26.879Z,0.30
2023-02-06T23:41:33.241Z,0.20
2023-02-06T23:44:20.163Z,0.20
2023-02-06T23:47:06.999Z,0.10
2023-02-06T23:49:53.895Z,0.10
2023-02-06T23:52:41.050Z,0.10
2023-02-06T23:55:28.484Z,0.00
2023-02-06T23:58:15.490Z,0.00
